Time;durP1;ratioP1;P1;durP2;ratioP2;P2;SDS_P1;SDS_P2;PMS_P1;PMS_P2;Temp;Humidity;BMP_temperature;BMP_pressure;BME280_temperature;BME280_humidity;BME280_pressure;Samples;Min_cycle;Max_cycle;Signal;HPM_P1;HPM_P2
2021/12/14 00:02:42;;;;;;;1328.07;458.90;;;1.50;99.90;;;;;;10536336;28;20156;-84
2021/12/14 00:07:43;;;;;;;1299.43;470.50;;;1.50;99.90;;;;;;10537207;28;20016;-85
2021/12/14 00:12:58;;;;;;;959.40;373.77;;;1.50;99.90;;;;;;10527067;28;20032;-84
2021/12/14 00:18:03;;;;;;;1218.83;408.03;;;1.50;99.90;;;;;;10531476;28;20034;-84
2021/12/14 00:28:31;;;;;;;1062.00;400.63;;;1.50;99.90;;;;;;10530619;28;20027;-84
2021/12/14 00:33:34;;;;;;;856.30;352.60;;;1.50;99.90;;;;;;10516089;28;20112;-84
2021/12/14 00:38:37;;;;;;;1230.03;413.33;;;1.50;99.90;;;;;;10528340;28;20490;-85
2021/12/14 00:43:38;;;;;;;1548.40;475.53;;;1.60;99.90;;;;;;10535547;28;20177;-83
2021/12/14 00:48:40;;;;;;;1579.93;487.80;;;1.60;99.90;;;;;;10508937;28;20020;-84
2021/12/14 00:53:41;;;;;;;1322.30;456.20;;;1.60;99.90;;;;;;10467792;28;20016;-86
2021/12/14 00:58:42;;;;;;;1047.27;401.73;;;1.50;99.90;;;;;;10526108;28;20052;-84
2021/12/14 01:03:46;;;;;;;1333.07;451.27;;;1.50;99.90;;;;;;10532819;28;20028;-84
2021/12/14 01:08:49;;;;;;;1387.50;472.87;;;1.50;99.90;;;;;;10526327;28;20023;-85
2021/12/14 01:14:05;;;;;;;1093.13;427.03;;;1.50;99.90;;;;;;10504151;28;20028;-88
2021/12/14 01:19:19;;;;;;;939.25;373.65;;;1.50;99.90;;;;;;10532899;28;20016;-84
2021/12/14 01:29:42;;;;;;;1787.27;462.27;;;1.60;99.90;;;;;;10529497;28;20031;-84
2021/12/14 01:34:42;;;;;;;1421.90;450.43;;;1.60;99.90;;;;;;10532914;28;20028;-86
2021/12/14 01:45:10;;;;;;;1999.90;557.20;;;1.60;99.90;;;;;;10532317;28;20077;-84
2021/12/14 01:50:28;;;;;;;1328.23;437.27;;;1.60;99.90;;;;;;10530157;28;20081;-84
2021/12/14 01:55:34;;;;;;;1104.90;409.10;;;1.50;99.90;;;;;;10532699;28;20433;-87
2021/12/14 02:00:44;;;;;;;1204.25;407.30;;;1.50;99.90;;;;;;10530897;28;20062;-85
2021/12/14 02:05:50;;;;;;;1054.27;378.07;;;1.60;99.90;;;;;;10532508;28;20071;-84
2021/12/14 02:10:52;;;;;;;1739.43;473.47;;;1.50;99.90;;;;;;10533097;28;20047;-84
2021/12/14 02:15:54;;;;;;;1319.07;407.00;;;1.60;99.90;;;;;;10529864;28;20026;-84
2021/12/14 02:20:56;;;;;;;1194.10;409.77;;;1.50;99.90;;;;;;10531572;28;20643;-84
2021/12/14 02:26:01;;;;;;;1407.67;430.80;;;1.60;99.90;;;;;;10513525;28;20028;-84
2021/12/14 02:31:05;;;;;;;1999.90;544.27;;;1.50;99.90;;;;;;10531489;28;20463;-84
2021/12/14 02:36:19;;;;;;;1038.83;354.67;;;1.60;99.90;;;;;;10512495;28;20036;-84
2021/12/14 02:41:20;;;;;;;1464.80;441.03;;;1.50;99.90;;;;;;10511624;28;20047;-87
2021/12/14 02:46:35;;;;;;;1999.90;511.30;;;1.60;99.90;;;;;;10531585;28;20110;-84
2021/12/14 02:51:39;;;;;;;1583.03;432.73;;;1.60;99.90;;;;;;10497302;28;20040;-85
2021/12/14 02:56:42;;;;;;;1756.37;483.37;;;1.50;99.90;;;;;;10515201;28;20038;-86
2021/12/14 03:01:45;;;;;;;1664.37;452.93;;;1.60;99.90;;;;;;10512324;28;20044;-86
2021/12/14 03:06:54;;;;;;;1737.33;464.77;;;1.60;99.90;;;;;;10511528;28;20043;-84
2021/12/14 03:11:55;;;;;;;1844.37;475.43;;;1.60;99.90;;;;;;10500111;28;20027;-84
2021/12/14 03:16:56;;;;;;;1702.97;448.27;;;1.60;99.90;;;;;;10521353;28;20378;-84
2021/12/14 03:21:58;;;;;;;1906.23;500.13;;;1.50;99.90;;;;;;10537673;28;20039;-84
2021/12/14 03:27:02;;;;;;;1496.53;430.07;;;1.50;99.90;;;;;;10520658;28;20020;-84
2021/12/14 03:32:03;;;;;;;1960.17;503.93;;;1.50;99.90;;;;;;10519888;28;20157;-88
2021/12/14 03:37:19;;;;;;;1652.67;442.83;;;1.50;99.90;;;;;;10537975;28;20024;-86
2021/12/14 03:42:36;;;;;;;1542.10;426.20;;;1.50;99.90;;;;;;10497329;28;20036;-84
2021/12/14 03:47:43;;;;;;;1568.33;419.77;;;1.50;99.90;;;;;;10536012;28;20088;-86
2021/12/14 03:52:44;;;;;;;978.53;333.67;;;1.50;99.90;;;;;;10537599;28;20409;-85
2021/12/14 03:57:45;;;;;;;1291.13;393.47;;;1.50;99.90;;;;;;10519034;28;20020;-83
2021/12/14 04:02:47;;;;;;;1488.47;413.37;;;1.50;99.90;;;;;;10513829;28;20076;-83
2021/12/14 04:07:48;;;;;;;1389.23;399.37;;;1.50;99.90;;;;;;10530262;28;20160;-86
2021/12/14 04:12:51;;;;;;;1381.63;398.20;;;1.50;99.90;;;;;;10517414;28;20016;-84
2021/12/14 04:17:52;;;;;;;1553.40;428.13;;;1.50;99.90;;;;;;10513365;28;20020;-86
2021/12/14 04:22:53;;;;;;;986.57;319.43;;;1.50;99.90;;;;;;10533976;28;20051;-82
2021/12/14 04:27:55;;;;;;;1306.80;372.13;;;1.50;99.90;;;;;;10532747;28;20032;-84
2021/12/14 04:33:01;;;;;;;1145.27;352.77;;;1.50;99.90;;;;;;10534953;28;20023;-83
2021/12/14 04:38:10;;;;;;;1322.88;386.70;;;1.50;99.90;;;;;;10536356;28;20028;-85
2021/12/14 04:54:00;;;;;;;1186.07;341.17;;;1.50;99.90;;;;;;10528921;28;20554;-86
2021/12/14 04:59:09;;;;;;;1215.27;329.50;;;1.50;99.90;;;;;;10529764;28;20542;-84
2021/12/14 05:04:18;;;;;;;926.20;294.60;;;1.50;99.90;;;;;;10519878;28;20024;-84
2021/12/14 05:09:30;;;;;;;1449.57;386.83;;;1.60;99.90;;;;;;10515945;28;20485;-84
2021/12/14 05:14:33;;;;;;;1697.90;370.37;;;1.50;99.90;;;;;;10532545;28;20626;-83
2021/12/14 05:19:38;;;;;;;1033.80;318.67;;;1.50;99.90;;;;;;10532195;28;20153;-84
2021/12/14 05:24:42;;;;;;;1136.30;321.87;;;1.50;99.90;;;;;;10510235;28;20032;-82
2021/12/14 05:29:45;;;;;;;1445.97;389.47;;;1.50;99.90;;;;;;10532181;28;20016;-83
2021/12/14 05:34:49;;;;;;;1482.33;382.37;;;1.50;99.90;;;;;;10533981;28;20034;-83
2021/12/14 05:39:57;;;;;;;1143.50;327.27;;;1.50;99.90;;;;;;10509860;28;20158;-83
2021/12/14 05:45:04;;;;;;;1276.13;340.70;;;1.50;99.90;;;;;;10490235;28;20162;-82
2021/12/14 05:50:06;;;;;;;1142.00;319.57;;;1.50;99.90;;;;;;10489308;28;20025;-82
2021/12/14 05:55:07;;;;;;;1078.87;313.10;;;1.50;99.90;;;;;;10489392;28;20028;-82
2021/12/14 06:00:12;;;;;;;1261.27;329.53;;;1.50;99.90;;;;;;10490829;28;20052;-84
2021/12/14 06:05:19;;;;;;;1198.83;317.87;;;1.60;99.90;;;;;;10490945;28;20017;-84
2021/12/14 06:10:22;;;;;;;1158.93;313.53;;;1.50;99.90;;;;;;10491477;28;20471;-83
2021/12/14 06:15:27;;;;;;;1178.67;325.47;;;1.50;99.90;;;;;;10490586;28;20021;-83
2021/12/14 06:20:28;;;;;;;1099.03;318.03;;;1.60;99.90;;;;;;10490996;28;20403;-83
2021/12/14 06:25:29;;;;;;;989.43;311.17;;;1.50;99.90;;;;;;10490771;28;20475;-82
2021/12/14 06:30:34;;;;;;;976.37;282.20;;;1.50;99.90;;;;;;10490547;28;20437;-82
2021/12/14 06:35:47;;;;;;;1202.93;327.00;;;1.60;99.90;;;;;;10490584;28;20020;-83
2021/12/14 06:41:05;;;;;;;1074.87;265.50;;;1.60;99.90;;;;;;10498944;28;20024;-83
2021/12/14 06:46:15;;;;;;;976.47;264.77;;;1.60;99.90;;;;;;10480942;28;20107;-82
2021/12/14 06:51:26;;;;;;;717.77;219.10;;;1.50;99.90;;;;;;10498429;28;20028;-84
2021/12/14 06:56:29;;;;;;;956.07;261.63;;;1.50;99.90;;;;;;10498258;28;20016;-83
2021/12/14 07:01:34;;;;;;;860.67;236.13;;;1.50;99.90;;;;;;10497587;28;20106;-84
2021/12/14 07:06:43;;;;;;;870.87;240.53;;;1.50;99.90;;;;;;10497444;28;20029;-82
2021/12/14 07:11:55;;;;;;;968.73;261.90;;;1.50;99.90;;;;;;10497335;28;20464;-85
2021/12/14 07:17:03;;;;;;;940.80;244.17;;;1.50;99.90;;;;;;10497601;28;20107;-82
2021/12/14 07:22:04;;;;;;;909.70;262.33;;;1.50;99.90;;;;;;10497798;28;20082;-82
2021/12/14 07:27:21;;;;;;;824.30;246.30;;;1.60;99.90;;;;;;10479263;28;20032;-84
2021/12/14 07:32:42;;;;;;;883.47;232.43;;;1.60;99.90;;;;;;10496861;28;20062;-84
2021/12/14 07:37:43;;;;;;;713.00;216.27;;;1.70;99.90;;;;;;10497205;28;20725;-84
2021/12/14 07:42:44;;;;;;;1002.87;262.20;;;1.70;99.90;;;;;;10496584;28;20069;-84
2021/12/14 07:47:52;;;;;;;1075.43;275.17;;;1.70;99.90;;;;;;10477732;28;20143;-84
2021/12/14 07:52:53;;;;;;;1011.07;272.33;;;1.70;99.90;;;;;;10496371;28;20097;-84
2021/12/14 07:57:54;;;;;;;762.93;224.60;;;1.80;99.90;;;;;;10495791;28;20078;-84
2021/12/14 08:02:58;;;;;;;932.63;233.67;;;1.80;99.90;;;;;;10477526;28;20048;-83
2021/12/14 08:08:03;;;;;;;894.53;250.43;;;1.90;99.90;;;;;;10495025;28;20024;-83
2021/12/14 08:13:12;;;;;;;889.93;255.90;;;1.90;99.90;;;;;;10495164;28;20039;-83
2021/12/14 08:18:21;;;;;;;984.23;275.27;;;2.00;99.90;;;;;;10494692;28;20020;-82
2021/12/14 08:23:26;;;;;;;960.77;263.00;;;2.00;99.90;;;;;;10494766;28;20375;-83
2021/12/14 08:28:27;;;;;;;713.37;224.07;;;2.10;99.90;;;;;;10476617;28;20340;-84
2021/12/14 08:33:31;;;;;;;913.73;243.70;;;2.10;99.90;;;;;;10494202;28;20467;-84
2021/12/14 08:38:35;;;;;;;692.47;227.07;;;2.10;99.90;;;;;;10495209;28;20032;-82
2021/12/14 08:43:36;;;;;;;1070.60;346.97;;;2.10;99.90;;;;;;10493863;28;20028;-83
2021/12/14 08:48:42;;;;;;;941.33;260.67;;;2.10;99.90;;;;;;10475587;28;20020;-82
2021/12/14 08:53:57;;;;;;;716.67;241.18;;;2.10;99.90;;;;;;10475742;28;20025;-82
2021/12/14 08:58:58;;;;;;;940.90;251.17;;;2.20;99.90;;;;;;10492728;28;20481;-84
2021/12/14 09:04:09;;;;;;;757.43;218.47;;;2.20;99.90;;;;;;10492023;28;20032;-84
2021/12/14 09:09:15;;;;;;;912.27;255.80;;;2.30;99.90;;;;;;10493309;28;20108;-83
2021/12/14 09:14:17;;;;;;;;;;;2.30;99.90;;;;;;10492799;28;20136;-82
2021/12/14 09:19:23;;;;;;;931.90;283.23;;;2.30;99.90;;;;;;10492525;28;19911;-85
2021/12/14 09:24:27;;;;;;;758.35;240.27;;;2.30;99.90;;;;;;10474697;28;20024;-83
2021/12/14 09:29:29;;;;;;;913.50;284.13;;;2.30;99.90;;;;;;10491847;28;20165;-84
2021/12/14 09:34:33;;;;;;;729.70;223.07;;;2.40;99.90;;;;;;10492084;28;20349;-83
2021/12/14 09:39:36;;;;;;;898.37;279.47;;;2.40;99.90;;;;;;10474103;28;20071;-84
2021/12/14 09:44:38;;;;;;;990.20;387.30;;;2.50;99.90;;;;;;10491668;28;20023;-83
2021/12/14 09:49:41;;;;;;;1116.43;470.80;;;2.50;99.90;;;;;;10491740;28;20031;-84
2021/12/14 09:54:42;;;;;;;978.53;392.87;;;2.50;99.90;;;;;;10491548;28;20341;-83
2021/12/14 09:59:43;;;;;;;741.97;262.03;;;2.50;99.90;;;;;;10491274;28;20052;-83
2021/12/14 10:04:53;;;;;;;1050.57;439.90;;;2.50;99.90;;;;;;10491894;28;20103;-83
2021/12/14 10:09:57;;;;;;;1079.87;361.83;;;2.60;99.90;;;;;;10491486;28;20020;-83
2021/12/14 10:14:58;;;;;;;882.80;296.80;;;2.60;99.90;;;;;;10490515;28;20023;-84
2021/12/14 10:19:59;;;;;;;922.73;324.47;;;2.50;99.90;;;;;;10490845;28;20033;-84
2021/12/14 10:25:05;;;;;;;704.37;235.23;;;2.60;99.90;;;;;;10490728;28;20032;-83
2021/12/14 10:30:20;;;;;;;705.57;241.37;;;2.70;99.90;;;;;;10472748;28;20086;-85
2021/12/14 10:35:25;;;;;;;689.30;235.27;;;2.70;99.90;;;;;;10490836;28;20025;-84
2021/12/14 10:46:01;;;;;;;638.13;237.50;;;2.80;99.90;;;;;;10490965;28;20040;-83
2021/12/14 10:51:05;;;;;;;651.00;257.57;;;2.90;99.90;;;;;;10490535;28;20471;-85
2021/12/14 10:56:13;;;;;;;615.37;263.23;;;2.90;99.90;;;;;;10490814;28;20024;-83
2021/12/14 11:01:18;;;;;;;712.03;276.37;;;3.00;99.90;;;;;;10490278;28;20067;-85
2021/12/14 11:06:27;;;;;;;418.77;171.35;;;3.10;99.90;;;;;;10491898;28;20036;-85
2021/12/14 11:11:56;;;;;;;486.37;167.87;;;3.20;99.90;;;;;;10528847;28;20017;-84
2021/12/14 11:22:43;;;;;;;654.33;271.80;;;3.20;99.90;;;;;;10531368;28;20036;-85
2021/12/14 11:27:48;;;;;;;508.20;169.97;;;3.30;99.90;;;;;;10538606;28;20034;-85
2021/12/14 11:33:10;;;;;;;803.07;305.27;;;3.20;99.90;;;;;;10538817;28;20012;-87
2021/12/14 11:38:39;;;;;;;958.63;490.80;;;3.20;99.90;;;;;;10519888;28;20087;-84
2021/12/14 11:43:48;;;;;;;579.70;214.33;;;3.20;99.90;;;;;;10501962;28;20403;-85
2021/12/14 11:48:49;;;;;;;782.83;291.90;;;3.10;99.90;;;;;;10509451;28;20028;-84
2021/12/14 11:53:52;;;;;;;772.30;301.43;;;3.10;99.90;;;;;;10496699;28;20349;-84
2021/12/14 11:58:56;;;;;;;421.53;152.93;;;3.20;99.90;;;;;;10496366;28;20066;-85
2021/12/14 12:04:21;;;;;;;468.63;164.23;;;3.20;99.90;;;;;;10496029;28;20047;-86
2021/12/14 12:09:37;;;;;;;495.50;183.10;;;3.30;99.90;;;;;;10494322;28;20103;-84
2021/12/14 12:14:53;;;;;;;323.75;109.00;;;3.30;99.90;;;;;;10495088;28;20029;-85
2021/12/14 12:19:53;;;;;;;466.63;119.13;;;3.30;99.90;;;;;;10494890;28;20025;-85
2021/12/14 12:24:57;;;;;;;558.43;188.73;;;3.30;99.90;;;;;;10494726;28;20446;-87
2021/12/14 12:30:10;;;;;;;462.13;146.63;;;3.30;99.90;;;;;;10494976;28;20496;-86
2021/12/14 12:41:33;;;;;;;750.83;346.97;;;3.30;99.90;;;;;;10492667;28;20083;-84
2021/12/14 12:46:47;;;;;;;622.90;225.80;;;3.20;99.90;;;;;;10493375;28;20409;-85
2021/12/14 12:51:54;;;;;;;673.80;234.73;;;3.20;99.90;;;;;;10493111;28;20029;-87
2021/12/14 12:57:22;;;;;;;580.67;244.63;;;3.20;99.90;;;;;;10492770;28;20033;-86
2021/12/14 13:08:36;;;;;;;629.42;293.83;;;3.20;99.90;;;;;;10499603;28;20040;-84
2021/12/14 13:14:23;;;;;;;507.57;193.43;;;3.20;99.90;;;;;;10533859;28;20048;-84
2021/12/14 13:19:26;;;;;;;528.63;189.70;;;3.20;99.90;;;;;;10506920;28;20021;-87
2021/12/14 13:30:28;;;;;;;595.42;214.23;;;3.10;99.90;;;;;;10507665;28;20108;-87
2021/12/14 13:47:27;;;;;;;546.55;183.85;;;2.90;99.90;;;;;;10491430;28;20016;-86
2021/12/14 13:52:28;;;;;;;591.23;207.77;;;2.90;99.90;;;;;;10495428;28;20031;-87
2021/12/14 13:57:29;;;;;;;541.20;215.83;;;2.90;99.90;;;;;;10498322;28;20024;-89
2021/12/14 14:02:30;;;;;;;610.97;243.47;;;2.90;99.90;;;;;;10517156;28;20056;-85
2021/12/14 14:14:14;;;;;;;487.90;172.10;;;2.90;99.90;;;;;;10570641;28;20020;-85
2021/12/14 14:19:16;;;;;;;451.10;178.93;;;2.80;99.90;;;;;;10486205;28;20036;-86
2021/12/14 14:24:23;;;;;;;625.30;259.47;;;2.80;99.90;;;;;;10491962;28;20012;-86
2021/12/14 14:29:48;;;;;;;698.00;268.83;;;2.80;99.90;;;;;;10508790;28;20040;-87
2021/12/14 14:35:01;;;;;;;680.77;268.70;;;2.80;99.90;;;;;;10517845;28;20056;-85
2021/12/14 14:40:13;;;;;;;577.77;219.13;;;2.70;99.90;;;;;;10511731;28;20046;-85
2021/12/14 14:57:19;;;;;;;847.10;320.93;;;2.60;99.90;;;;;;10553803;28;20032;-85
2021/12/14 15:08:06;;;;;;;726.33;242.40;;;2.60;99.90;;;;;;10512173;28;20039;-85
2021/12/14 15:13:14;;;;;;;717.83;229.47;;;2.50;99.90;;;;;;10562963;28;20023;-82
2021/12/14 15:30:41;;;;;;;1347.67;403.70;;;2.50;99.90;;;;;;10546814;28;20053;-89
2021/12/14 15:47:29;;;;;;;1200.87;360.40;;;2.50;99.90;;;;;;10518578;23;20065;-88
2021/12/14 15:52:30;;;;;;;1138.20;327.30;;;2.40;99.90;;;;;;10425240;28;20036;-86
2021/12/14 15:57:30;;;;;;;1239.73;321.30;;;2.40;99.90;;;;;;10438407;28;20534;-85
2021/12/14 16:02:35;;;;;;;1064.23;299.80;;;2.40;99.90;;;;;;10395368;28;20577;-86
2021/12/14 16:07:39;;;;;;;875.83;271.87;;;2.40;99.90;;;;;;10399393;28;20021;-88
2021/12/14 16:17:52;;;;;;;1113.33;281.43;;;2.40;99.90;;;;;;10423833;28;20043;-88
2021/12/14 16:22:56;;;;;;;1165.07;266.37;;;2.40;99.90;;;;;;10394102;28;20627;-87
2021/12/14 16:28:01;;;;;;;1053.47;304.67;;;2.40;99.90;;;;;;10426759;28;20032;-86
2021/12/14 16:33:17;;;;;;;700.50;238.10;;;2.40;99.90;;;;;;10411423;28;20465;-86
2021/12/14 16:38:26;;;;;;;901.72;288.20;;;2.40;99.90;;;;;;10411978;28;21016;-88
2021/12/14 16:43:40;;;;;;;1015.73;308.03;;;2.40;99.90;;;;;;10389322;28;20481;-87
2021/12/14 17:12:17;;;;;;;814.47;250.67;;;2.40;99.90;;;;;;10365028;28;20117;-86
2021/12/14 17:17:21;;;;;;;793.23;261.03;;;2.30;99.90;;;;;;10359395;28;20409;-86
2021/12/14 17:22:39;;;;;;;925.20;290.70;;;2.40;99.90;;;;;;10368181;28;20029;-84
2021/12/14 17:27:42;;;;;;;828.80;289.00;;;2.30;99.90;;;;;;10368296;28;20018;-87
2021/12/14 17:32:43;;;;;;;784.67;266.23;;;2.40;99.90;;;;;;10368627;28;20030;-88
2021/12/14 17:38:07;;;;;;;723.97;258.10;;;2.30;99.90;;;;;;10361637;28;20660;-84
2021/12/14 17:43:14;;;;;;;828.93;303.77;;;2.30;99.90;;;;;;10366708;28;20373;-83
2021/12/14 17:48:17;;;;;;;757.47;279.30;;;2.30;99.90;;;;;;10366954;28;20025;-85
2021/12/14 17:53:20;;;;;;;652.27;238.80;;;2.40;99.90;;;;;;10367872;28;20067;-87
2021/12/14 17:58:28;;;;;;;1309.03;347.50;;;2.40;99.90;;;;;;10374985;28;20034;-85
2021/12/14 18:03:32;;;;;;;958.07;302.03;;;2.40;99.90;;;;;;10367399;28;20041;-86
2021/12/14 18:08:42;;;;;;;1270.37;363.60;;;2.40;99.90;;;;;;10366489;28;20401;-85
2021/12/14 18:14:07;;;;;;;1328.03;408.23;;;2.40;99.90;;;;;;10342546;28;20019;-84
2021/12/14 18:19:10;;;;;;;982.87;319.07;;;2.40;99.90;;;;;;10355475;28;20034;-85
2021/12/14 18:24:16;;;;;;;734.90;265.73;;;2.40;99.90;;;;;;10347717;28;20044;-88
2021/12/14 18:29:26;;;;;;;1000.90;309.48;;;2.40;99.90;;;;;;10365584;28;20412;-85
2021/12/14 18:34:28;;;;;;;810.93;252.37;;;2.40;99.90;;;;;;10366118;28;20034;-88
2021/12/14 18:39:42;;;;;;;560.13;188.10;;;2.40;99.90;;;;;;10372011;28;20474;-85
2021/12/14 18:44:57;;;;;;;561.63;175.57;;;2.40;99.90;;;;;;10372730;28;20030;-85
2021/12/14 18:49:58;;;;;;;1999.90;702.90;;;2.50;99.90;;;;;;10372191;28;20064;-85
2021/12/14 18:55:17;;;;;;;603.57;229.33;;;2.50;99.90;;;;;;10373701;28;20029;-85
2021/12/14 19:00:21;;;;;;;837.27;253.03;;;2.50;99.90;;;;;;10370507;28;20374;-85
2021/12/14 19:05:29;;;;;;;1049.70;274.10;;;2.50;99.90;;;;;;10372938;28;20056;-86
2021/12/14 19:10:38;;;;;;;723.53;217.03;;;2.50;99.90;;;;;;10372908;28;20670;-89
2021/12/14 19:15:39;;;;;;;984.87;247.17;;;2.50;99.90;;;;;;10354546;28;20365;-88
2021/12/14 19:20:44;;;;;;;1218.07;295.63;;;2.40;99.90;;;;;;10372120;28;20101;-89
2021/12/14 19:25:47;;;;;;;870.30;250.82;;;2.40;99.90;;;;;;10370802;28;20247;-87
2021/12/14 19:30:53;;;;;;;1206.57;283.73;;;2.40;99.90;;;;;;10363141;28;20099;-86
2021/12/14 19:35:56;;;;;;;932.73;245.73;;;2.40;99.90;;;;;;10364999;28;20025;-88
2021/12/14 19:41:14;;;;;;;1092.97;269.10;;;2.40;99.90;;;;;;10370470;28;20049;-86
2021/12/14 19:46:22;;;;;;;982.53;250.57;;;2.50;99.90;;;;;;10350200;28;20045;-87
2021/12/14 19:51:30;;;;;;;1221.30;282.60;;;2.40;99.90;;;;;;10368424;28;20374;-88
2021/12/14 19:56:32;;;;;;;1001.70;260.93;;;2.40;99.90;;;;;;10369494;28;20037;-88
2021/12/14 20:01:42;;;;;;;1254.87;296.63;;;2.40;99.90;;;;;;10370743;28;20373;-89
2021/12/14 20:06:46;;;;;;;929.90;259.17;;;2.40;99.90;;;;;;10373833;28;20477;-88
2021/12/14 20:11:52;;;;;;;615.77;206.50;;;2.40;99.90;;;;;;10374528;28;20385;-85
2021/12/14 20:16:54;;;;;;;886.72;247.00;;;2.50;99.90;;;;;;10368605;28;20113;-86
2021/12/14 20:21:56;;;;;;;1163.40;285.03;;;2.40;99.90;;;;;;10370641;28;20092;-88
2021/12/14 20:27:03;;;;;;;899.37;249.67;;;2.40;99.90;;;;;;10354526;28;20032;-88
2021/12/14 20:32:21;;;;;;;825.03;211.47;;;2.40;99.90;;;;;;10368932;28;20124;-85
2021/12/14 20:37:27;;;;;;;684.40;202.70;;;2.40;99.90;;;;;;10370065;28;20108;-86
2021/12/14 20:42:49;;;;;;;1055.53;245.45;;;2.40;99.90;;;;;;10365897;28;20030;-86
2021/12/14 20:47:50;;;;;;;865.33;251.73;;;2.40;99.90;;;;;;10367716;28;20030;-86
2021/12/14 20:52:58;;;;;;;1190.17;284.97;;;2.30;99.90;;;;;;10350678;28;20032;-88
2021/12/14 20:58:03;;;;;;;1104.03;279.73;;;2.30;99.90;;;;;;10371492;28;20029;-88
2021/12/14 21:03:05;;;;;;;1103.13;268.73;;;2.30;99.90;;;;;;10360469;28;20124;-86
2021/12/14 21:08:11;;;;;;;594.60;209.50;;;2.40;99.90;;;;;;10367739;28;20046;-88
2021/12/14 21:13:24;;;;;;;1320.68;315.85;;;2.40;99.90;;;;;;10362840;28;20037;-88
2021/12/14 21:18:29;;;;;;;1007.97;284.90;;;2.40;99.90;;;;;;10366303;28;20067;-88
2021/12/14 21:23:29;;;;;;;894.43;280.50;;;2.40;99.90;;;;;;10348173;28;20032;-87
2021/12/14 21:28:35;;;;;;;606.17;227.10;;;2.40;99.90;;;;;;10367060;28;20033;-88
2021/12/14 21:33:44;;;;;;;1400.35;374.15;;;2.40;99.90;;;;;;10364143;28;20032;-88
2021/12/14 21:38:53;;;;;;;755.87;246.50;;;2.40;99.90;;;;;;10368144;28;20545;-87
2021/12/14 21:44:03;;;;;;;892.27;249.53;;;2.50;99.90;;;;;;10350275;28;20038;-87
2021/12/14 21:49:07;;;;;;;656.03;214.17;;;2.50;99.90;;;;;;10367766;28;20034;-86
2021/12/14 21:54:08;;;;;;;726.30;200.17;;;2.50;99.90;;;;;;10367533;28;20025;-88
2021/12/14 21:59:08;;;;;;;559.53;178.60;;;2.50;99.90;;;;;;10350458;28;20121;-88
2021/12/14 22:04:09;;;;;;;1261.37;297.80;;;2.50;99.90;;;;;;10366745;28;20050;-88
2021/12/14 22:09:10;;;;;;;1360.27;321.47;;;2.50;99.90;;;;;;10365702;28;20056;-88
2021/12/14 22:14:15;;;;;;;1277.63;304.87;;;2.40;99.90;;;;;;10366800;28;20109;-88
2021/12/14 22:19:18;;;;;;;1350.10;346.87;;;2.50;99.90;;;;;;10367621;28;20590;-88
2021/12/14 22:24:18;;;;;;;1123.57;300.93;;;2.40;99.90;;;;;;10366005;28;20033;-89
2021/12/14 22:29:19;;;;;;;939.27;268.53;;;2.40;99.90;;;;;;10349485;28;20061;-88
2021/12/14 22:34:20;;;;;;;932.37;250.87;;;2.40;99.90;;;;;;10361999;28;20030;-88
2021/12/14 22:39:22;;;;;;;1046.83;272.73;;;2.40;99.90;;;;;;10327101;28;20483;-88
2021/12/14 22:44:24;;;;;;;709.17;212.90;;;2.40;99.90;;;;;;10348918;28;20132;-88
2021/12/14 22:54:32;;;;;;;;;;;2.50;99.90;;;;;;10367322;28;20108;-89
2021/12/14 22:59:33;;;;;;;1268.90;293.30;;;2.40;99.90;;;;;;10348814;28;19909;-89
2021/12/14 23:04:34;;;;;;;1471.97;417.00;;;2.30;99.90;;;;;;10365741;28;20041;-88
2021/12/14 23:09:39;;;;;;;1603.57;422.13;;;2.30;99.90;;;;;;10366053;28;20022;-88
2021/12/14 23:14:41;;;;;;;700.60;271.73;;;2.40;99.90;;;;;;10348509;28;20026;-88
2021/12/14 23:24:51;;;;;;;1901.70;465.95;;;2.40;99.90;;;;;;10373749;28;20049;-88
2021/12/14 23:29:53;;;;;;;1211.37;383.17;;;2.50;99.90;;;;;;10372747;28;20124;-88
2021/12/14 23:34:53;;;;;;;1125.70;365.50;;;2.40;99.90;;;;;;10373018;28;20037;-87
2021/12/14 23:39:55;;;;;;;1335.47;374.23;;;2.40;99.90;;;;;;10372976;28;20032;-89
2021/12/14 23:44:55;;;;;;;1426.33;377.90;;;2.50;99.90;;;;;;10372551;28;20369;-88
2021/12/14 23:49:58;;;;;;;1882.00;476.77;;;2.50;99.90;;;;;;10372471;28;20029;-88
2021/12/14 23:54:59;;;;;;;888.63;312.27;;;2.40;99.90;;;;;;10372911;28;20025;-88
